Terminal Aerodrome Forecast
Issued by NWS

Home | Current Version | Previous Version | Text Only | Print | Product List | Glossary On
Versions: 1 2 3 4 5 6 7 8 9 10 11 12 13 14 15 16 17
000
FTUS46 KPQR 211330 AAA
TAFONP
TAF AMD
KONP 211330Z 2114/2212 18025G35KT 4SM RA BKN010 OVC015
     FM211900 20029G36KT 2SM RA OVC012
     FM220000 19035G45KT 4SM -RA BR OVC007=

USA.gov is the U.S. government's official web portal to all federal, state and local government web resources and services.